Ana Sayfa
METAR-TAF:

METAR-TAF

Havaalanları :

Beslan Havalimanı

Vladikavkaz, Rusya

Enlem: 43-12-18N, Boylam: 044-36-24E, yükseklik: 510 m

Güncel hava durumu gözlemi

Rapor saat 15:00 UTC de 39 dakika önce yapıldı.
Rüzgar doğudan 4 kt
Sıcaklık 15°C
Nem 72%
Basınç 1016 hPa
Görüş mesafesi 10 km veya daha fazla
4100 ft yükseklikte parçalı çok bulutlu

METAR: URMO 231500Z 09002MPS 9999 BKN041 15/10 Q1016 R09/010070 NOSIG RMK QFE718/0958

Saat: 18:39 (15:39 UTC)

Tahmin

Rapor saat 14:00 UTC de 1 saat ve 39 dakika önce yapıldı.
Ayın 23'si saat 15 UTC'den ayın 23'si saat 24 UTC'ye kadar geçerli Tahmin
Rüzgar batı/kuzeybatıdan 6 kt ve 16 kt'a kadar ani rüzgarlar
Görüş mesafesi 10 km veya daha fazla
3000 ft yükseklikte parçalı çok bulutlu
Geçici
ayın 23'si saat 15 UTC'den ayın 23'si saat 21 UTC'ye kadar
Görüş mesafesi: 3100 m
1100 ft yükseklikte parçalı çok bulutlu
Pus

TAF: URMO 231400Z 2315/2324 30003G08MPS 9999 BKN030 TEMPO 2315/2321 3100 BR BKN011

4.000'den fazla havaalanı için hava durumu gözlemleri ve tahminleri (METAR ve TAF raporları).

Kullanılabilir istasyonlar harita üzerinde sarı ve kırmızı noktalarla gösterilir.

İstasyonun adını görmek için fareyi noktanın üzerinde gezdirin.

Sonrasında hava gözlem ve tahminlerini görmek için tıklayın.

Haritayı değiştirmek için: yaklaştırmak için siyah artı işaretli yeşil düğmeye ve uzaklaştırmak için de eksi işaretli düğmeye hızla tıklayın; bitişik haritalar için yeşil okları kullanın.


METAR-TAF: